createdAt,value
2024-02-24T00:00:26.538Z,2.4
2024-02-24T00:01:26.540Z,2.37
2024-02-24T00:02:26.578Z,2.36
2024-02-24T00:03:26.631Z,2.37
2024-02-24T00:04:26.778Z,2.34
2024-02-24T00:05:26.771Z,2.34
2024-02-24T00:06:26.635Z,2.35
2024-02-24T00:07:26.643Z,2.37
2024-02-24T00:08:26.742Z,2.38
2024-02-24T00:09:26.697Z,2.39
2024-02-24T00:10:26.672Z,2.4
2024-02-24T00:11:26.782Z,2.4
2024-02-24T00:12:26.722Z,2.38
2024-02-24T00:13:26.748Z,2.37
2024-02-24T00:14:26.979Z,2.41
2024-02-24T00:15:26.744Z,2.43
2024-02-24T00:16:26.805Z,2.42
2024-02-24T00:17:26.832Z,2.54
2024-02-24T00:18:26.833Z,2.53
2024-02-24T00:19:26.865Z,2.49
2024-02-24T00:20:26.845Z,2.48
2024-02-24T00:21:27.244Z,2.5
2024-02-24T00:22:26.873Z,2.57
2024-02-24T00:23:26.889Z,2.58
2024-02-24T00:24:26.909Z,2.59
2024-02-24T00:25:26.900Z,2.62
2024-02-24T00:26:26.962Z,2.62
2024-02-24T00:27:27.036Z,2.62
2024-02-24T00:28:26.975Z,2.58
2024-02-24T00:29:26.990Z,2.55
2024-02-24T00:30:26.961Z,2.49
2024-02-24T00:31:27.017Z,2.49
2024-02-24T00:32:27.050Z,2.51
2024-02-24T00:33:27.070Z,2.58
2024-02-24T00:34:27.059Z,2.57
2024-02-24T00:35:27.122Z,2.53
2024-02-24T00:36:27.060Z,2.51
2024-02-24T00:37:27.052Z,2.52
2024-02-24T00:38:27.208Z,2.51
2024-02-24T00:39:27.216Z,2.51
2024-02-24T00:40:27.120Z,2.52
2024-02-24T00:41:27.197Z,2.52
2024-02-24T00:42:27.169Z,2.54
2024-02-24T00:43:27.128Z,2.53
2024-02-24T00:44:27.210Z,2.53
2024-02-24T00:45:27.140Z,2.53
2024-02-24T00:46:27.192Z,2.52
2024-02-24T00:47:27.313Z,2.49
2024-02-24T00:48:28.072Z,2.55
2024-02-24T00:49:27.896Z,2.57
2024-02-24T00:50:27.266Z,2.58
2024-02-24T00:51:27.261Z,2.58
2024-02-24T00:52:27.337Z,2.57
2024-02-24T00:53:27.422Z,2.57
2024-02-24T00:54:27.274Z,2.57
2024-02-24T00:55:27.292Z,2.55
2024-02-24T00:56:27.378Z,2.55
2024-02-24T00:57:27.509Z,2.54
2024-02-24T00:58:27.909Z,2.54
2024-02-24T00:59:27.901Z,2.54
2024-02-24T01:00:27.892Z,2.52
2024-02-24T01:01:28.901Z,2.52
2024-02-24T01:02:28.000Z,2.52
2024-02-24T01:03:28.382Z,2.5
2024-02-24T01:04:28.065Z,2.5
2024-02-24T01:05:28.020Z,2.48
2024-02-24T01:06:27.974Z,2.46
2024-02-24T01:07:28.112Z,2.45
2024-02-24T01:08:28.018Z,2.43
2024-02-24T01:09:28.202Z,2.39
2024-02-24T01:10:28.031Z,2.39
2024-02-24T01:11:28.258Z,2.36
2024-02-24T01:12:28.169Z,2.35
2024-02-24T01:13:28.087Z,2.33
2024-02-24T01:14:28.138Z,2.28
2024-02-24T01:15:28.103Z,2.27
2024-02-24T01:16:28.098Z,2.26
2024-02-24T01:17:28.304Z,2.24
2024-02-24T01:18:28.166Z,2.24
2024-02-24T01:19:28.181Z,2.26
2024-02-24T01:20:28.168Z,2.28
2024-02-24T01:21:28.149Z,2.28
2024-02-24T01:22:28.254Z,2.34
2024-02-24T01:23:28.191Z,2.35
2024-02-24T01:24:28.200Z,2.38
2024-02-24T01:25:28.334Z,2.41
2024-02-24T01:26:28.266Z,2.41
2024-02-24T01:27:28.248Z,2.41
2024-02-24T01:28:28.267Z,2.43
2024-02-24T01:29:28.304Z,2.41
2024-02-24T01:30:28.257Z,2.4
2024-02-24T01:31:28.292Z,2.39
2024-02-24T01:32:28.444Z,2.38
2024-02-24T01:33:28.411Z,2.37
2024-02-24T01:34:28.724Z,2.36
2024-02-24T01:35:28.449Z,2.36
2024-02-24T01:36:28.387Z,2.32
2024-02-24T01:37:28.392Z,2.29
2024-02-24T01:38:28.458Z,2.29
2024-02-24T01:39:28.425Z,2.26
2024-02-24T01:40:28.518Z,2.26
2024-02-24T01:41:28.500Z,2.26
2024-02-24T01:42:28.483Z,2.28
2024-02-24T01:43:29.292Z,2.29
2024-02-24T01:44:28.560Z,2.28
2024-02-24T01:45:28.535Z,2.29
2024-02-24T01:46:29.176Z,2.29
2024-02-24T01:47:29.238Z,2.29
2024-02-24T01:48:28.841Z,2.27
2024-02-24T01:49:28.781Z,2.28
2024-02-24T01:50:28.787Z,2.27
2024-02-24T01:51:28.683Z,2.22
2024-02-24T01:52:28.638Z,2.19
2024-02-24T01:53:30.432Z,2.16
2024-02-24T01:54:29.195Z,2.15
2024-02-24T01:55:28.697Z,2.16
2024-02-24T01:56:28.728Z,2.17
2024-02-24T01:57:28.941Z,2.18
2024-02-24T01:58:29.949Z,2.19
2024-02-24T01:59:29.310Z,2.2
2024-02-24T02:00:28.740Z,2.21
2024-02-24T02:01:28.754Z,2.21
2024-02-24T02:02:28.843Z,2.21
2024-02-24T02:03:28.781Z,2.21
2024-02-24T02:04:28.884Z,2.21
2024-02-24T02:05:29.016Z,2.19
2024-02-24T02:06:28.988Z,2.2
2024-02-24T02:07:28.866Z,2.2
2024-02-24T02:08:29.097Z,2.19
2024-02-24T02:09:28.912Z,2.19
2024-02-24T02:11:29.237Z,2.17
2024-02-24T02:12:29.221Z,2.16
2024-02-24T02:13:29.095Z,2.15
2024-02-24T02:14:29.200Z,2.17
2024-02-24T02:15:29.137Z,2.17
2024-02-24T02:16:29.173Z,2.15
2024-02-24T02:17:29.229Z,2.15
2024-02-24T02:18:31.868Z,2.14
2024-02-24T02:19:29.884Z,2.11
2024-02-24T02:20:29.875Z,2.1
2024-02-24T02:21:31.375Z,2.08
2024-02-24T02:22:30.249Z,2.08
2024-02-24T02:23:29.970Z,2.08
2024-02-24T02:24:29.891Z,2.08
2024-02-24T02:25:29.901Z,2.06
2024-02-24T02:26:30.060Z,2.05
2024-02-24T02:27:29.989Z,2.06
2024-02-24T02:28:29.972Z,2.05
2024-02-24T02:29:30.020Z,2.05
2024-02-24T02:30:30.002Z,2.03
2024-02-24T02:31:30.007Z,2.02
2024-02-24T02:32:30.167Z,1.97
2024-02-24T02:33:30.236Z,1.97
2024-02-24T02:34:30.150Z,1.93
2024-02-24T02:35:30.928Z,1.93
2024-02-24T02:36:30.088Z,1.94
2024-02-24T02:37:30.124Z,1.95
2024-02-24T02:38:30.152Z,1.97
2024-02-24T02:39:30.133Z,1.97
2024-02-24T02:40:30.155Z,1.98
2024-02-24T02:41:30.234Z,1.98
2024-02-24T02:42:30.215Z,1.99
2024-02-24T02:43:30.224Z,2.01
2024-02-24T02:44:30.428Z,2.01
2024-02-24T02:45:30.215Z,1.99
2024-02-24T02:46:30.225Z,2.02
2024-02-24T02:47:30.301Z,2.05
2024-02-24T02:48:30.449Z,2.04
2024-02-24T02:49:30.405Z,2.05
2024-02-24T02:50:30.337Z,2.04
2024-02-24T02:51:30.311Z,2.05
2024-02-24T02:52:30.363Z,2.06
2024-02-24T02:53:30.399Z,2.05
2024-02-24T02:54:30.347Z,2.04
2024-02-24T02:55:30.413Z,2.03
2024-02-24T02:56:30.421Z,2.01
2024-02-24T02:57:30.460Z,1.99
2024-02-24T02:58:30.411Z,1.99
2024-02-24T02:59:30.454Z,1.98
2024-02-24T03:00:30.467Z,1.95
2024-02-24T03:01:30.491Z,1.96
2024-02-24T03:02:30.549Z,1.96
2024-02-24T03:03:30.598Z,1.96
2024-02-24T03:04:30.546Z,1.96
2024-02-24T03:05:30.571Z,1.97
2024-02-24T03:06:30.570Z,1.97
2024-02-24T03:07:30.556Z,1.97
2024-02-24T03:08:30.637Z,1.99
2024-02-24T03:09:30.616Z,2.02
2024-02-24T03:10:30.684Z,2.04
2024-02-24T03:11:31.246Z,2.04
2024-02-24T03:12:30.833Z,2.04
2024-02-24T03:13:30.697Z,2.04
2024-02-24T03:14:30.681Z,2.06
2024-02-24T03:15:30.712Z,2.06
2024-02-24T03:16:30.904Z,2.07
2024-02-24T03:17:30.807Z,2.07
2024-02-24T03:18:30.802Z,2.08
2024-02-24T03:19:30.833Z,2.08
2024-02-24T03:20:30.803Z,2.09
2024-02-24T03:21:31.642Z,2.09
2024-02-24T03:22:30.798Z,2.1
2024-02-24T03:23:30.882Z,2.1
2024-02-24T03:24:30.821Z,2.11
2024-02-24T03:25:30.862Z,2.11
2024-02-24T03:26:30.954Z,2.12
2024-02-24T03:27:30.868Z,2.12
2024-02-24T03:28:30.972Z,2.12
2024-02-24T03:29:30.950Z,2.12
2024-02-24T03:30:30.946Z,2.12
2024-02-24T03:31:31.001Z,2.11
2024-02-24T03:32:31.036Z,2.11
2024-02-24T03:33:31.054Z,2.11
2024-02-24T03:34:31.047Z,2.11
2024-02-24T03:35:31.102Z,2.09
2024-02-24T03:36:31.061Z,2.09
2024-02-24T03:37:31.052Z,2.08
2024-02-24T03:38:31.147Z,2.08
2024-02-24T03:39:31.062Z,2.12
2024-02-24T03:40:31.093Z,2.13
2024-02-24T03:41:31.680Z,2.14
2024-02-24T03:42:31.093Z,2.14
2024-02-24T03:43:31.127Z,2.13
2024-02-24T03:44:31.168Z,2.1
2024-02-24T03:45:31.129Z,2.07
2024-02-24T03:46:31.143Z,2.08
2024-02-24T03:47:31.227Z,2.08
2024-02-24T03:48:31.885Z,2.09
2024-02-24T03:49:31.273Z,2.09
2024-02-24T03:50:31.229Z,2.08
2024-02-24T03:51:31.229Z,2.08
2024-02-24T03:52:31.259Z,2.07
2024-02-24T03:53:31.339Z,2.08
2024-02-24T03:54:31.265Z,2.09
2024-02-24T03:55:31.292Z,2.08
2024-02-24T03:56:31.362Z,2.08
2024-02-24T03:57:31.324Z,2.09
2024-02-24T03:58:31.784Z,2.08
2024-02-24T03:59:31.417Z,2.08
2024-02-24T04:00:31.385Z,2.06
2024-02-24T04:01:31.395Z,2.05
2024-02-24T04:02:31.473Z,2.06
2024-02-24T04:03:31.505Z,2.06
2024-02-24T04:04:31.442Z,2.05
2024-02-24T04:05:31.991Z,2.05
2024-02-24T04:06:32.064Z,2.06
2024-02-24T04:07:31.996Z,2.07
2024-02-24T04:08:32.106Z,2.06
2024-02-24T04:09:32.130Z,2.08
2024-02-24T04:10:32.093Z,2.09
2024-02-24T04:11:32.180Z,2.08
2024-02-24T04:12:32.121Z,2.09
2024-02-24T04:13:32.161Z,2.1
2024-02-24T04:14:32.170Z,2.09
2024-02-24T04:15:32.125Z,2.1
2024-02-24T04:16:32.166Z,2.1
2024-02-24T04:17:32.307Z,2.1
2024-02-24T04:18:32.341Z,2.1
2024-02-24T04:19:32.557Z,2.1
2024-02-24T04:20:32.309Z,2.1
2024-02-24T04:21:32.224Z,2.1
2024-02-24T04:22:32.243Z,2.1
2024-02-24T04:23:32.369Z,2.09
2024-02-24T04:24:32.311Z,2.08
2024-02-24T04:25:32.305Z,2.08
2024-02-24T04:26:32.361Z,2.08
2024-02-24T04:27:32.412Z,2.08
2024-02-24T04:28:32.320Z,2.08
2024-02-24T04:29:32.405Z,2.08
2024-02-24T04:30:32.374Z,2.07
2024-02-24T04:31:32.384Z,2.07
2024-02-24T04:32:32.519Z,2.05
2024-02-24T04:33:32.475Z,2.05
2024-02-24T04:34:32.508Z,2.04
2024-02-24T04:35:32.465Z,2.03
2024-02-24T04:36:32.945Z,2.02
2024-02-24T04:37:32.952Z,2.01
2024-02-24T04:38:33.042Z,1.99
2024-02-24T04:39:32.997Z,2
2024-02-24T04:40:34.447Z,1.99
2024-02-24T04:41:33.077Z,1.98
2024-02-24T04:42:33.042Z,1.97
2024-02-24T04:43:35.562Z,1.97
2024-02-24T04:44:33.261Z,1.97
2024-02-24T04:45:33.259Z,1.96
2024-02-24T04:46:33.235Z,1.93
2024-02-24T04:47:33.360Z,1.94
2024-02-24T04:48:33.547Z,1.94
2024-02-24T04:49:33.393Z,1.93
2024-02-24T04:50:33.370Z,1.93
2024-02-24T04:51:33.340Z,1.94
2024-02-24T04:52:33.341Z,1.93
2024-02-24T04:53:33.454Z,1.94
2024-02-24T04:54:33.360Z,1.94
2024-02-24T04:55:33.420Z,1.94
2024-02-24T04:56:33.509Z,1.93
2024-02-24T04:57:33.473Z,1.93
2024-02-24T04:58:33.448Z,1.94
2024-02-24T04:59:33.514Z,1.93
2024-02-24T05:00:33.575Z,1.94
2024-02-24T05:01:33.595Z,1.94
2024-02-24T05:02:33.616Z,1.95
2024-02-24T05:03:34.385Z,1.95
2024-02-24T05:04:33.608Z,1.95
2024-02-24T05:05:33.740Z,1.94
2024-02-24T05:06:33.590Z,1.94
2024-02-24T05:07:33.707Z,1.94
2024-02-24T05:08:33.716Z,1.94
2024-02-24T05:09:33.699Z,1.94
2024-02-24T05:10:33.630Z,1.93
2024-02-24T05:11:33.733Z,1.93
2024-02-24T05:12:33.735Z,1.93
2024-02-24T05:13:33.675Z,1.92
2024-02-24T05:14:33.715Z,1.91
2024-02-24T05:15:33.767Z,1.89
2024-02-24T05:16:33.739Z,1.87
2024-02-24T05:17:33.814Z,1.89
2024-02-24T05:18:33.868Z,1.89
2024-02-24T05:19:34.120Z,1.88
2024-02-24T05:20:33.997Z,1.88
2024-02-24T05:21:33.924Z,1.87
2024-02-24T05:22:33.925Z,1.87
2024-02-24T05:23:33.936Z,1.87
2024-02-24T05:24:33.862Z,1.87
2024-02-24T05:25:33.919Z,1.88
2024-02-24T05:26:34.093Z,1.88
2024-02-24T05:27:33.934Z,1.87
2024-02-24T05:28:33.925Z,1.87
2024-02-24T05:29:34.884Z,1.87
2024-02-24T05:30:33.987Z,1.87
2024-02-24T05:31:33.971Z,1.87
2024-02-24T05:32:34.126Z,1.86
2024-02-24T05:33:34.128Z,1.84
2024-02-24T05:34:34.081Z,1.85
2024-02-24T05:35:34.151Z,1.84
2024-02-24T05:36:34.084Z,1.82
2024-02-24T05:37:34.401Z,1.79
2024-02-24T05:38:37.153Z,1.77
2024-02-24T05:39:34.106Z,1.75
2024-02-24T05:40:34.125Z,1.75
2024-02-24T05:41:34.579Z,1.75
2024-02-24T05:42:34.137Z,1.74
2024-02-24T05:43:34.384Z,1.75
2024-02-24T05:44:34.634Z,1.73
2024-02-24T05:45:34.193Z,1.74
2024-02-24T05:46:34.211Z,1.75
2024-02-24T05:47:34.308Z,1.74
2024-02-24T05:48:34.943Z,1.74
2024-02-24T05:49:34.394Z,1.76
2024-02-24T05:50:34.335Z,1.78
2024-02-24T05:51:34.325Z,1.8
2024-02-24T05:52:34.328Z,1.82
2024-02-24T05:53:34.367Z,1.85
2024-02-24T05:54:34.354Z,1.87
2024-02-24T05:55:34.390Z,1.88
2024-02-24T05:56:34.487Z,1.9
2024-02-24T05:57:34.606Z,1.91
2024-02-24T05:58:34.586Z,1.95
2024-02-24T05:59:35.146Z,1.97
2024-02-24T06:00:34.492Z,1.97
2024-02-24T06:01:34.463Z,2.01
2024-02-24T06:02:34.515Z,1.99
2024-02-24T06:03:34.561Z,2.02
2024-02-24T06:04:34.529Z,2.03
2024-02-24T06:05:35.113Z,2.02
2024-02-24T06:06:35.269Z,2.04
2024-02-24T06:07:35.335Z,2.05
2024-02-24T06:08:35.132Z,2.07
2024-02-24T06:09:35.133Z,2.11
2024-02-24T06:10:35.361Z,2.1
2024-02-24T06:11:35.218Z,2.14
2024-02-24T06:12:35.173Z,2.16
2024-02-24T06:13:35.193Z,2.14
2024-02-24T06:14:35.545Z,2.17
2024-02-24T06:15:35.297Z,2.15
2024-02-24T06:16:35.261Z,2.16
2024-02-24T06:17:35.328Z,2.19
2024-02-24T06:18:35.350Z,2.19
2024-02-24T06:19:35.438Z,2.21
2024-02-24T06:20:35.325Z,2.21
2024-02-24T06:21:35.338Z,2.24
2024-02-24T06:22:35.341Z,2.28
2024-02-24T06:23:35.374Z,2.28
2024-02-24T06:24:35.344Z,2.29
2024-02-24T06:25:35.369Z,2.31
2024-02-24T06:26:35.451Z,2.32
2024-02-24T06:27:35.422Z,2.35
2024-02-24T06:28:35.416Z,2.36
2024-02-24T06:29:35.492Z,2.4
2024-02-24T06:30:35.460Z,2.4
2024-02-24T06:31:35.470Z,2.41
2024-02-24T06:32:36.042Z,2.42
2024-02-24T06:33:36.245Z,2.46
2024-02-24T06:35:38.195Z,2.45
2024-02-24T06:36:38.191Z,2.47
2024-02-24T06:37:38.214Z,2.52
2024-02-24T06:38:38.223Z,2.47
2024-02-24T06:39:38.204Z,2.48
2024-02-24T06:40:45.205Z,2.45
2024-02-24T06:41:42.596Z,2.45
2024-02-24T06:42:42.604Z,2.43
2024-02-24T06:43:42.611Z,2.41
2024-02-24T06:44:42.629Z,2.42
2024-02-24T06:45:42.622Z,2.41
2024-02-24T06:46:42.626Z,2.43
2024-02-24T06:47:42.807Z,2.43
2024-02-24T06:48:43.283Z,2.44
2024-02-24T06:49:42.759Z,2.43
2024-02-24T06:50:42.933Z,2.41
2024-02-24T06:51:42.737Z,2.44
2024-02-24T06:52:42.752Z,2.45
2024-02-24T06:53:43.492Z,2.44
2024-02-24T06:54:42.789Z,2.44
2024-02-24T06:55:42.821Z,2.48
2024-02-24T06:56:42.843Z,2.5
2024-02-24T06:57:44.067Z,2.48
2024-02-24T06:58:42.861Z,2.46
2024-02-24T06:59:45.009Z,2.49
2024-02-24T07:00:43.003Z,2.47
2024-02-24T07:01:42.926Z,2.53
2024-02-24T07:02:43.033Z,2.49
2024-02-24T07:03:43.071Z,2.49
2024-02-24T07:04:43.295Z,2.54
2024-02-24T07:05:43.142Z,2.57
2024-02-24T07:06:43.017Z,2.58
2024-02-24T07:07:43.148Z,2.58
2024-02-24T07:08:43.031Z,2.56
2024-02-24T07:09:43.059Z,2.57
2024-02-24T07:10:43.285Z,2.62
2024-02-24T07:11:43.306Z,2.63
2024-02-24T07:12:44.490Z,2.69
2024-02-24T07:13:43.131Z,2.64
2024-02-24T07:14:43.173Z,2.65
2024-02-24T07:15:43.297Z,2.66
2024-02-24T07:16:43.175Z,2.67
2024-02-24T07:17:43.444Z,2.71
2024-02-24T07:18:43.513Z,2.7
2024-02-24T07:19:43.231Z,2.67
2024-02-24T07:20:43.485Z,2.64
2024-02-24T07:21:43.298Z,2.64
2024-02-24T07:22:43.311Z,2.7
2024-02-24T07:23:43.295Z,2.73
2024-02-24T07:24:43.291Z,2.8
2024-02-24T07:25:43.444Z,2.75
2024-02-24T07:26:46.851Z,2.78
2024-02-24T07:27:45.417Z,2.75
2024-02-24T07:28:45.470Z,2.76
2024-02-24T07:29:45.563Z,2.77
2024-02-24T07:30:45.509Z,2.79
2024-02-24T07:31:45.573Z,2.8
2024-02-24T07:32:47.738Z,2.85
2024-02-24T07:33:45.739Z,2.9
2024-02-24T07:34:45.650Z,2.9
2024-02-24T07:35:45.582Z,2.87
2024-02-24T07:36:45.592Z,2.88
2024-02-24T07:37:45.572Z,2.84
2024-02-24T07:38:45.657Z,2.9
2024-02-24T07:39:45.598Z,2.86
2024-02-24T07:40:45.646Z,2.79
2024-02-24T07:41:45.910Z,2.87
2024-02-24T07:42:45.638Z,2.92
2024-02-24T07:43:45.688Z,2.9
2024-02-24T07:44:45.742Z,2.88
2024-02-24T07:45:45.698Z,2.93
2024-02-24T07:46:45.714Z,2.99
2024-02-24T07:47:45.853Z,3.01
2024-02-24T07:48:45.932Z,2.98
2024-02-24T07:49:45.851Z,3
2024-02-24T07:50:45.885Z,3.01
2024-02-24T07:51:45.833Z,3
2024-02-24T07:52:47.741Z,2.99
2024-02-24T07:53:45.881Z,2.97
2024-02-24T07:54:45.856Z,3.03
2024-02-24T07:55:45.861Z,3.05
2024-02-24T07:56:45.973Z,3.08
2024-02-24T07:57:45.922Z,3.01
2024-02-24T07:58:45.915Z,3.1
2024-02-24T07:59:46.035Z,3.15
2024-02-24T08:00:50.824Z,3.22
2024-02-24T08:01:49.212Z,3.23
2024-02-24T08:02:49.357Z,3.16
2024-02-24T08:03:49.276Z,3.14
2024-02-24T08:04:49.326Z,3.2
2024-02-24T08:05:49.363Z,3.22
2024-02-24T08:06:49.436Z,3.2
2024-02-24T08:07:49.309Z,3.24
2024-02-24T08:08:49.483Z,3.24
2024-02-24T08:09:49.366Z,3.24
2024-02-24T08:10:49.597Z,3.18
2024-02-24T08:11:49.449Z,3.13
2024-02-24T08:12:49.550Z,3.14
2024-02-24T08:13:49.411Z,3.16
2024-02-24T08:14:49.502Z,3.22
2024-02-24T08:15:49.409Z,3.17
2024-02-24T08:16:49.463Z,3.21
2024-02-24T08:17:49.533Z,3.2
2024-02-24T08:18:49.620Z,3.24
2024-02-24T08:19:49.610Z,3.22
2024-02-24T08:20:49.516Z,3.25
2024-02-24T08:21:50.301Z,3.24
2024-02-24T08:22:49.582Z,3.27
2024-02-24T08:23:49.594Z,3.22
2024-02-24T08:24:49.580Z,3.2
2024-02-24T08:25:49.596Z,3.18
2024-02-24T08:26:49.679Z,3.18
2024-02-24T08:27:49.631Z,3.1
2024-02-24T08:28:49.664Z,3.11
2024-02-24T08:29:49.748Z,3.15
2024-02-24T08:30:49.689Z,3.2
2024-02-24T08:31:49.695Z,3.21
2024-02-24T08:32:49.936Z,3.24
2024-02-24T08:33:49.889Z,3.22
2024-02-24T08:34:49.782Z,3.26
2024-02-24T08:35:50.440Z,3.29
2024-02-24T08:36:49.944Z,3.29
2024-02-24T08:37:49.993Z,3.33
2024-02-24T08:38:49.887Z,3.32
2024-02-24T08:39:49.820Z,3.38
2024-02-24T08:40:49.861Z,3.3
2024-02-24T08:41:49.892Z,3.25
2024-02-24T08:42:49.885Z,3.28
2024-02-24T08:43:49.892Z,3.28
2024-02-24T08:44:49.960Z,3.23
2024-02-24T08:45:49.954Z,3.22
2024-02-24T08:46:49.933Z,3.28
2024-02-24T08:47:50.040Z,3.3
2024-02-24T08:48:50.114Z,3.32
2024-02-24T08:49:50.084Z,3.36
2024-02-24T08:50:49.992Z,3.35
2024-02-24T08:51:50.023Z,3.37
2024-02-24T08:52:50.735Z,3.44
2024-02-24T08:53:50.231Z,3.39
2024-02-24T08:54:50.297Z,3.4
2024-02-24T08:55:50.069Z,3.42
2024-02-24T08:56:50.210Z,3.44
2024-02-24T08:57:50.096Z,3.43
2024-02-24T08:58:50.566Z,3.4
2024-02-24T08:59:50.250Z,3.42
2024-02-24T09:00:50.189Z,3.41
2024-02-24T09:01:53.771Z,3.37
2024-02-24T09:02:50.353Z,3.36
2024-02-24T09:03:51.194Z,3.36
2024-02-24T09:04:50.214Z,3.34
2024-02-24T09:05:50.278Z,3.34
2024-02-24T09:06:50.381Z,3.35
2024-02-24T09:07:50.332Z,3.37
2024-02-24T09:08:50.309Z,3.39
2024-02-24T09:09:50.320Z,3.4
2024-02-24T09:10:50.282Z,3.37
2024-02-24T09:11:50.363Z,3.34
2024-02-24T09:12:50.324Z,3.36
2024-02-24T09:13:50.321Z,3.32
2024-02-24T09:14:50.412Z,3.35
2024-02-24T09:15:50.391Z,3.37
2024-02-24T09:16:54.400Z,3.38
2024-02-24T09:17:50.816Z,3.37
2024-02-24T09:18:50.869Z,3.4
2024-02-24T09:19:50.880Z,3.37
2024-02-24T09:20:50.877Z,3.38
2024-02-24T09:21:50.817Z,3.37
2024-02-24T09:22:50.811Z,3.37
2024-02-24T09:23:50.967Z,3.36
2024-02-24T09:24:50.883Z,3.37
2024-02-24T09:25:50.858Z,3.36
2024-02-24T09:26:50.917Z,3.39
2024-02-24T09:27:50.863Z,3.4
2024-02-24T09:28:50.879Z,3.43
2024-02-24T09:29:51.006Z,3.42
2024-02-24T09:30:51.010Z,3.43
2024-02-24T09:31:50.952Z,3.38
2024-02-24T09:32:51.005Z,3.45
2024-02-24T09:33:50.993Z,3.45
2024-02-24T09:34:51.027Z,3.48
2024-02-24T09:35:51.032Z,3.51
2024-02-24T09:36:51.023Z,3.52
2024-02-24T09:37:51.042Z,3.55
2024-02-24T09:38:51.084Z,3.57
2024-02-24T09:39:51.074Z,3.45
2024-02-24T09:40:51.045Z,3.47
2024-02-24T09:41:51.107Z,3.49
2024-02-24T09:42:51.224Z,3.5
2024-02-24T09:43:51.139Z,3.57
2024-02-24T09:44:51.314Z,3.54
2024-02-24T09:45:51.762Z,3.53
2024-02-24T09:46:51.374Z,3.57
2024-02-24T09:47:51.195Z,3.6
2024-02-24T09:48:52.227Z,3.6
2024-02-24T09:49:51.315Z,3.57
2024-02-24T09:50:51.346Z,3.63
2024-02-24T09:51:51.233Z,3.68
2024-02-24T09:52:51.248Z,3.69
2024-02-24T09:53:51.341Z,3.68
2024-02-24T09:54:51.277Z,3.67
2024-02-24T09:55:52.151Z,3.68
2024-02-24T09:56:52.794Z,3.7
2024-02-24T09:57:53.396Z,3.74
2024-02-24T09:58:52.274Z,3.73
2024-02-24T09:59:51.817Z,3.72
2024-02-24T10:00:51.713Z,3.75
2024-02-24T10:01:51.452Z,3.72
2024-02-24T10:02:51.693Z,3.79
2024-02-24T10:03:51.811Z,3.72
2024-02-24T10:04:51.454Z,3.63
2024-02-24T10:05:51.779Z,3.64
2024-02-24T10:06:51.427Z,3.61
2024-02-24T10:07:51.420Z,3.64
2024-02-24T10:08:52.053Z,3.63
2024-02-24T10:09:51.482Z,3.67
2024-02-24T10:10:51.496Z,3.65
2024-02-24T10:11:51.499Z,3.63
2024-02-24T10:13:54.944Z,3.65
2024-02-24T10:14:54.973Z,3.62
2024-02-24T10:15:55.017Z,3.65
2024-02-24T10:16:54.977Z,3.66
2024-02-24T10:17:55.543Z,3.68
2024-02-24T10:18:55.147Z,3.68
2024-02-24T10:19:56.200Z,3.65
2024-02-24T10:20:55.091Z,3.56
2024-02-24T10:21:55.091Z,3.63
2024-02-24T10:22:55.208Z,3.65
2024-02-24T10:23:55.379Z,3.68
2024-02-24T10:24:55.124Z,3.63
2024-02-24T10:25:55.128Z,3.66
2024-02-24T10:26:55.265Z,3.63
2024-02-24T10:27:55.233Z,3.58
2024-02-24T10:28:55.164Z,3.6
2024-02-24T10:29:55.894Z,3.65
2024-02-24T10:30:55.976Z,3.62
2024-02-24T10:31:55.203Z,3.61
2024-02-24T10:32:55.580Z,3.64
2024-02-24T10:33:55.437Z,3.66
2024-02-24T10:34:55.406Z,3.63
2024-02-24T10:35:56.569Z,3.64
2024-02-24T10:36:55.620Z,3.66
2024-02-24T10:38:10.731Z,3.66
2024-02-24T10:38:59.050Z,3.66
2024-02-24T10:39:57.041Z,3.65
2024-02-24T10:40:57.500Z,3.61
2024-02-24T10:41:57.517Z,3.63
2024-02-24T10:42:57.914Z,3.63
2024-02-24T10:44:06.473Z,3.62
2024-02-24T10:45:02.262Z,3.66
2024-02-24T10:46:01.777Z,3.6
2024-02-24T10:47:01.788Z,3.6
2024-02-24T10:48:01.915Z,3.59
2024-02-24T10:49:01.924Z,3.61
2024-02-24T10:50:02.531Z,3.61
2024-02-24T10:51:01.975Z,3.59
2024-02-24T10:52:02.442Z,3.6
2024-02-24T10:53:02.682Z,3.6
2024-02-24T10:54:04.199Z,3.62
2024-02-24T10:55:02.468Z,3.62
2024-02-24T10:56:03.070Z,3.69
2024-02-24T10:57:03.047Z,3.71
2024-02-24T10:58:01.921Z,3.75
2024-02-24T10:59:11.448Z,3.75
2024-02-24T11:01:02.914Z,3.71
2024-02-24T11:02:04.063Z,3.74
2024-02-24T11:03:04.818Z,3.77
2024-02-24T11:04:03.085Z,3.73
2024-02-24T11:05:02.898Z,3.69
2024-02-24T11:06:03.238Z,3.75
2024-02-24T11:07:03.532Z,3.75
2024-02-24T11:08:03.303Z,3.69
2024-02-24T11:09:04.833Z,3.72
2024-02-24T11:10:02.968Z,3.69
2024-02-24T11:13:08.124Z,3.75
2024-02-24T11:15:08.349Z,3.71
2024-02-24T11:16:10.266Z,3.76
2024-02-24T11:17:09.801Z,3.77
2024-02-24T11:18:08.541Z,3.77
2024-02-24T11:19:08.324Z,3.75
2024-02-24T11:20:08.675Z,3.78
2024-02-24T11:21:08.217Z,3.78
2024-02-24T11:22:08.317Z,3.78
2024-02-24T11:25:15.839Z,3.86
2024-02-24T11:27:13.273Z,3.78
2024-02-24T11:29:17.392Z,3.77
2024-02-24T11:31:27.420Z,3.84
2024-02-24T11:32:22.551Z,3.8
2024-02-24T11:33:23.108Z,3.75
2024-02-24T11:34:20.988Z,3.85
2024-02-24T11:35:20.365Z,3.93
2024-02-24T11:36:20.176Z,3.95
2024-02-24T11:37:20.909Z,3.92
2024-02-24T11:38:20.179Z,3.94
2024-02-24T11:39:20.989Z,3.96
2024-02-24T11:40:21.224Z,3.93
2024-02-24T11:41:20.284Z,3.9
2024-02-24T11:42:20.317Z,3.91
2024-02-24T11:43:20.441Z,3.92
2024-02-24T11:44:20.179Z,3.93
2024-02-24T11:45:20.192Z,3.96
2024-02-24T11:46:20.207Z,3.92
2024-02-24T11:47:20.667Z,3.93
2024-02-24T11:48:20.948Z,3.9
2024-02-24T11:49:20.382Z,3.91
2024-02-24T11:50:20.221Z,3.89
2024-02-24T11:51:23.356Z,3.9
2024-02-24T11:52:20.280Z,3.94
2024-02-24T11:53:20.452Z,3.9
2024-02-24T11:54:21.110Z,3.92
2024-02-24T11:55:20.426Z,4.01
2024-02-24T11:56:20.424Z,3.98
2024-02-24T11:57:20.580Z,3.93
2024-02-24T11:58:20.412Z,3.98
2024-02-24T11:59:20.444Z,3.96
2024-02-24T12:00:21.153Z,4.01
2024-02-24T12:01:20.515Z,4.05
2024-02-24T12:02:20.573Z,4.05
2024-02-24T12:03:22.145Z,4.08
2024-02-24T12:04:23.549Z,3.96
2024-02-24T12:05:20.636Z,3.99
2024-02-24T12:06:21.480Z,4.04
2024-02-24T12:07:20.782Z,4.01
2024-02-24T12:08:22.492Z,4.05
2024-02-24T12:09:20.811Z,4.06
2024-02-24T12:10:20.872Z,4.03
2024-02-24T12:11:24.247Z,4.01
2024-02-24T12:12:21.583Z,4.08
2024-02-24T12:13:21.636Z,4.04
2024-02-24T12:14:21.696Z,4.04
2024-02-24T12:15:22.178Z,4.04
2024-02-24T12:16:22.252Z,4.06
2024-02-24T12:17:21.874Z,4.04
2024-02-24T12:18:21.862Z,4.02
2024-02-24T12:19:21.689Z,4.05
2024-02-24T12:20:24.889Z,4.02
2024-02-24T12:21:21.616Z,4
2024-02-24T12:22:24.446Z,4.01
2024-02-24T12:23:24.710Z,4.04
2024-02-24T12:24:30.462Z,3.99
2024-02-24T12:25:26.969Z,4.06
2024-02-24T12:26:25.939Z,4.08
2024-02-24T12:27:23.821Z,4.13
2024-02-24T12:28:23.734Z,4.05
2024-02-24T12:29:23.726Z,4.06
2024-02-24T12:30:24.108Z,4.11
2024-02-24T12:31:23.854Z,4.12
2024-02-24T12:32:23.869Z,4.17
2024-02-24T12:33:24.177Z,4.09
2024-02-24T12:34:23.979Z,4.09
2024-02-24T12:35:24.104Z,4.07
2024-02-24T12:36:25.871Z,4.02
2024-02-24T12:37:25.587Z,4.02
2024-02-24T12:38:25.636Z,4.08
2024-02-24T12:39:23.901Z,4.08
2024-02-24T12:40:27.461Z,4.1
2024-02-24T12:41:24.184Z,4.16
2024-02-24T12:42:24.154Z,4.14
2024-02-24T12:43:24.180Z,4.18
2024-02-24T12:44:24.220Z,4.17
2024-02-24T12:45:24.254Z,4.19
2024-02-24T12:46:24.243Z,4.16
2024-02-24T12:47:24.295Z,4.13
2024-02-24T12:48:24.410Z,4.15
2024-02-24T12:49:24.478Z,4.11
2024-02-24T12:50:25.218Z,4.09
2024-02-24T12:51:24.407Z,4.08
2024-02-24T12:52:24.349Z,4.02
2024-02-24T12:53:24.518Z,4.09
2024-02-24T12:54:24.350Z,4.11
2024-02-24T12:55:24.363Z,4.11
2024-02-24T12:56:24.365Z,4.13
2024-02-24T12:57:24.386Z,4.12
2024-02-24T12:58:24.327Z,4.08
2024-02-24T12:59:24.407Z,4.07
2024-02-24T13:00:24.445Z,4.11
2024-02-24T13:01:24.479Z,4.12
2024-02-24T13:02:24.475Z,4.06
2024-02-24T13:03:24.510Z,4.02
2024-02-24T13:04:24.669Z,4.05
2024-02-24T13:05:24.705Z,4.07
2024-02-24T13:06:24.654Z,4.07
2024-02-24T13:07:24.596Z,4.13
2024-02-24T13:08:24.613Z,4.07
2024-02-24T13:09:24.723Z,4.07
2024-02-24T13:10:24.562Z,3.95
2024-02-24T13:11:24.650Z,4
2024-02-24T13:12:24.745Z,4.01
2024-02-24T13:13:24.596Z,4.04
2024-02-24T13:14:24.627Z,4.05
2024-02-24T13:15:24.637Z,4.07
2024-02-24T13:16:24.632Z,4.07
2024-02-24T13:17:24.715Z,4.04
2024-02-24T13:18:24.756Z,3.98
2024-02-24T13:19:24.647Z,4.01
2024-02-24T13:20:24.670Z,4.04
2024-02-24T13:21:24.913Z,4.04
2024-02-24T13:22:24.712Z,4.05
2024-02-24T13:23:24.838Z,4.06
2024-02-24T13:24:24.758Z,4
2024-02-24T13:25:24.684Z,3.97
2024-02-24T13:26:24.841Z,3.93
2024-02-24T13:27:24.736Z,3.98
2024-02-24T13:28:24.803Z,3.96
2024-02-24T13:29:24.810Z,3.97
2024-02-24T13:30:24.895Z,3.99
2024-02-24T13:31:26.302Z,4.02
2024-02-24T13:32:24.986Z,4.04
2024-02-24T13:33:25.037Z,4.04
2024-02-24T13:34:24.992Z,4.01